Time;durP1;ratioP1;P1;durP2;ratioP2;P2;SDS_P1;SDS_P2;PMS_P1;PMS_P2;Temp;Humidity;BMP_temperature;BMP_pressure;BME280_temperature;BME280_humidity;BME280_pressure;Samples;Min_cycle;Max_cycle;Signal;HPM_P1;HPM_P2
2022/02/11 00:00:50;;;;;;;7.68;6.63;;;;;21.30;101010.00;;;;2059475;28;20233;-65
2022/02/11 00:02:06;;;;;;;7.25;6.43;;;;;21.30;101013.00;;;;2059575;28;20582;-65
2022/02/11 00:04:39;;;;;;;7.93;5.80;;;;;21.20;101017.00;;;;2061352;28;20215;-65
2022/02/11 00:06:58;;;;;;;8.20;5.80;;;;;21.20;101007.00;;;;2059513;28;20733;-65
2022/02/11 00:07:59;;;;;;;6.93;5.40;;;;;21.20;101020.00;;;;2060077;28;20226;-65
2022/02/11 00:08:59;;;;;;;8.20;5.80;;;;;21.20;101020.00;;;;2063262;28;20588;-65
2022/02/11 00:09:59;;;;;;;5.80;4.93;;;;;21.20;101016.00;;;;2063264;28;20215;-65
2022/02/11 00:11:00;;;;;;;6.83;4.97;;;;;21.20;101022.00;;;;2060254;28;20299;-65
2022/02/11 00:12:00;;;;;;;6.20;5.10;;;;;21.20;101019.00;;;;2060151;28;20217;-65
2022/02/11 00:13:00;;;;;;;6.20;5.53;;;;;21.10;101016.00;;;;2059632;28;20211;-65
2022/02/11 00:14:02;;;;;;;5.63;4.90;;;;;21.20;101021.00;;;;2050636;28;20239;-65
2022/02/11 00:16:03;;;;;;;5.35;4.85;;;;;21.10;101024.00;;;;2059902;28;20222;-65
2022/02/11 00:17:04;;;;;;;7.47;5.47;;;;;21.20;101026.00;;;;2060332;28;20314;-65
2022/02/11 00:18:14;;;;;;;6.80;5.03;;;;;21.10;101027.00;;;;2060389;28;20223;-65
2022/02/11 00:19:14;;;;;;;5.97;4.72;;;;;21.00;101016.00;;;;2059719;28;20261;-65
2022/02/11 00:20:14;;;;;;;5.83;4.60;;;;;21.10;101003.00;;;;2059673;28;20229;-65
2022/02/11 00:21:15;;;;;;;6.27;4.13;;;;;21.10;101012.00;;;;2059405;28;20277;-65
2022/02/11 00:22:15;;;;;;;4.87;4.20;;;;;21.10;101010.00;;;;2059640;28;20234;-65
2022/02/11 00:23:16;;;;;;;6.80;4.90;;;;;21.10;101016.00;;;;2059229;28;20223;-65
2022/02/11 00:24:17;;;;;;;6.65;4.05;;;;;21.10;101015.00;;;;2060106;28;20274;-65
2022/02/11 00:25:18;;;;;;;5.00;4.50;;;;;21.10;101014.00;;;;2055552;28;20269;-65
2022/02/11 00:26:18;;;;;;;4.95;4.55;;;;;21.10;101007.00;;;;2063028;28;20214;-65
2022/02/11 00:27:58;;;;;;;4.77;4.17;;;;;21.10;101010.00;;;;2063330;28;20219;-65
2022/02/11 00:31:44;;;;;;;4.10;3.63;;;;;21.10;100999.00;;;;2054401;28;20254;-65
2022/02/11 00:33:58;;;;;;;4.85;3.80;;;;;21.10;101010.00;;;;2063410;28;20317;-66
2022/02/11 00:35:08;;;;;;;4.15;3.75;;;;;21.10;101011.00;;;;2064666;28;20207;-65
2022/02/11 00:36:11;;;;;;;4.47;3.38;;;;;21.10;101011.00;;;;2060301;28;20269;-66
2022/02/11 00:37:17;;;;;;;4.00;3.63;;;;;21.00;101008.00;;;;2059696;28;20253;-65
2022/02/11 00:38:24;;;;;;;5.03;3.90;;;;;21.10;101018.00;;;;2062183;28;20218;-65
2022/02/11 00:39:56;;;;;;;4.60;3.67;;;;;21.10;101016.00;;;;2062761;28;20211;-65
2022/02/11 00:41:34;;;;;;;5.18;3.45;;;;;21.00;101021.00;;;;2059575;28;20204;-66
2022/02/11 00:53:13;;;;;;;4.30;3.25;;;;;21.00;101017.00;;;;2060257;28;20230;-66
2022/02/11 01:02:54;;;;;;;4.82;4.00;;;;;20.90;101030.00;;;;2058243;28;20852;-65
2022/02/11 01:04:00;;;;;;;3.28;2.97;;;;;20.90;101022.00;;;;2062523;28;20222;-65
2022/02/11 01:05:00;;;;;;;3.25;2.92;;;;;20.90;101029.00;;;;2059320;28;20219;-66
2022/02/11 01:06:00;;;;;;;4.60;3.30;;;;;20.90;101033.00;;;;2057891;28;20234;-65
2022/02/11 01:07:01;;;;;;;3.97;3.63;;;;;20.90;101027.00;;;;2060017;28;20215;-65
2022/02/11 01:08:01;;;;;;;3.57;3.27;;;;;20.90;101030.00;;;;2060052;28;20215;-65
2022/02/11 01:09:02;;;;;;;5.00;3.97;;;;;20.90;101045.00;;;;2058088;28;20223;-65
2022/02/11 01:10:03;;;;;;;3.77;3.40;;;;;20.90;101025.00;;;;2059164;28;20226;-65
2022/02/11 01:11:03;;;;;;;4.80;3.60;;;;;20.90;101027.00;;;;2058784;28;20219;-65
2022/02/11 01:12:05;;;;;;;4.80;3.40;;;;;20.90;101023.00;;;;2058405;28;20226;-65
2022/02/11 01:13:06;;;;;;;4.38;3.83;;;;;20.80;101018.00;;;;2058362;28;20860;-66
2022/02/11 01:14:06;;;;;;;4.53;3.40;;;;;20.90;101022.00;;;;2059199;28;20243;-66
2022/02/11 01:15:07;;;;;;;3.73;3.43;;;;;20.90;101015.00;;;;2059743;28;20753;-65
2022/02/11 01:16:13;;;;;;;3.97;3.60;;;;;20.80;101026.00;;;;2059879;28;20304;-66
2022/02/11 01:18:16;;;;;;;3.80;3.40;;;;;20.90;101024.00;;;;2062351;28;20226;-65
2022/02/11 01:19:29;;;;;;;3.90;3.60;;;;;20.80;101028.00;;;;2059129;28;20582;-65
2022/02/11 01:20:45;;;;;;;3.80;3.28;;;;;20.90;101021.00;;;;2059431;28;20270;-65
2022/02/11 01:22:02;;;;;;;2.92;2.70;;;;;20.90;101015.00;;;;2059873;28;20218;-65
2022/02/11 01:25:01;;;;;;;4.38;3.83;;;;;20.80;101012.00;;;;2060434;28;20227;-65
2022/02/11 01:31:59;;;;;;;3.60;3.30;;;;;20.80;101020.00;;;;2059162;28;20353;-65
2022/02/11 01:37:50;;;;;;;3.60;3.30;;;;;20.70;100997.00;;;;2059006;28;20215;-65
2022/02/11 01:39:25;;;;;;;3.47;3.05;;;;;20.70;100996.00;;;;2060703;28;20253;-66
2022/02/11 01:41:08;;;;;;;3.40;3.10;;;;;20.80;100998.00;;;;2059017;28;20695;-65
2022/02/11 01:43:16;;;;;;;3.58;3.28;;;;;20.70;101000.00;;;;2058847;28;20207;-65
2022/02/11 01:44:00;;;;;;;3.80;3.50;;;;;20.70;101000.00;;;;2061861;28;20215;-65
2022/02/11 01:45:21;;;;;;;4.30;3.90;;;;;20.70;101003.00;;;;2058466;28;20629;-65
2022/02/11 01:48:33;;;;;;;4.43;4.03;;;;;20.70;101009.00;;;;2058608;28;20216;-65
2022/02/11 01:53:12;;;;;;;3.87;3.57;;;;;20.70;101001.00;;;;2058481;28;20675;-65
2022/02/11 01:54:35;;;;;;;4.53;3.33;;;;;20.70;101007.00;;;;2059488;28;20286;-65
2022/02/11 01:57:12;;;;;;;3.95;3.30;;;;;20.70;101021.00;;;;2059222;28;20226;-65
2022/02/11 02:00:55;;;;;;;4.00;3.63;;;;;20.70;101013.00;;;;2058433;28;20212;-65
2022/02/11 02:04:00;;;;;;;5.03;3.97;;;;;20.70;101014.00;;;;2058656;28;20222;-65
2022/02/11 02:08:56;;;;;;;3.65;3.28;;;;;20.70;101011.00;;;;2058880;28;20745;-66
2022/02/11 02:24:26;;;;;;;4.57;3.58;;;;;20.60;100997.00;;;;2059611;28;20302;-65
2022/02/11 02:27:43;;;;;;;3.93;3.57;;;;;20.60;100991.00;;;;2059550;28;20262;-65
2022/02/11 02:50:19;;;;;;;5.28;4.32;;;;;20.50;100985.00;;;;2058031;28;20675;-65
2022/02/11 02:57:48;;;;;;;4.40;4.00;;;;;20.50;100994.00;;;;2051741;28;20247;-65
2022/02/11 02:59:00;;;;;;;5.13;3.80;;;;;20.50;100993.00;;;;2052655;28;20212;-65
2022/02/11 03:00:27;;;;;;;4.20;3.85;;;;;20.40;100993.00;;;;2051017;28;20258;-65
2022/02/11 03:15:44;;;;;;;3.97;3.67;;;;;20.40;100992.00;;;;2059798;28;20309;-65
2022/02/11 03:50:03;;;;;;;4.30;3.80;;;;;20.30;100993.00;;;;2059746;28;20695;-65
2022/02/11 04:52:43;;;;;;;5.80;4.70;;;;;20.20;101014.00;;;;2060754;28;20265;-65
2022/02/11 04:55:37;;;;;;;5.13;4.20;;;;;20.00;101046.00;;;;2059836;28;20297;-65
2022/02/11 04:56:42;;;;;;;5.43;4.93;;;;;20.00;101043.00;;;;2059903;28;20204;-65
2022/02/11 05:00:20;;;;;;;6.70;4.75;;;;;20.00;101049.00;;;;2058543;28;20222;-65
2022/02/11 05:01:20;;;;;;;5.27;4.57;;;;;20.00;101042.00;;;;2059105;28;20215;-65
2022/02/11 05:02:25;;;;;;;6.40;4.53;;;;;20.00;101043.00;;;;2058584;28;20266;-65
2022/02/11 05:03:26;;;;;;;6.75;5.30;;;;;20.00;101050.00;;;;2062190;28;20211;-65
2022/02/11 05:04:26;;;;;;;4.93;4.43;;;;;20.00;101032.00;;;;2059051;28;20261;-65
2022/02/11 05:05:26;;;;;;;5.70;4.70;;;;;20.00;101056.00;;;;2059067;28;20212;-65
2022/02/11 05:06:27;;;;;;;4.83;4.43;;;;;20.00;101052.00;;;;2059256;28;20211;-65
2022/02/11 05:07:27;;;;;;;5.30;4.70;;;;;20.00;101058.00;;;;2059838;28;20218;-65
2022/02/11 05:08:27;;;;;;;5.10;4.40;;;;;20.00;101055.00;;;;2051412;28;20208;-65
2022/02/11 05:09:28;;;;;;;7.07;4.80;;;;;20.00;101049.00;;;;2067115;28;20304;-65
2022/02/11 05:10:28;;;;;;;5.00;4.50;;;;;20.00;101061.00;;;;2066201;28;20210;-64
2022/02/11 05:11:29;;;;;;;6.57;5.00;;;;;20.00;101055.00;;;;2058974;28;20692;-65
2022/02/11 05:12:30;;;;;;;6.78;4.82;;;;;20.00;101060.00;;;;2059276;28;20254;-65
2022/02/11 05:13:30;;;;;;;6.00;4.63;;;;;20.00;101048.00;;;;2059201;28;20707;-64
2022/02/11 05:14:30;;;;;;;6.90;5.03;;;;;20.00;101049.00;;;;2058635;28;20696;-65
2022/02/11 05:15:31;;;;;;;7.00;5.60;;;;;20.00;101059.00;;;;2059528;28;20207;-65
2022/02/11 05:16:32;;;;;;;5.78;4.68;;;;;20.00;101065.00;;;;2059940;28;20258;-66
2022/02/11 05:17:32;;;;;;;5.90;4.70;;;;;20.00;101063.00;;;;2058965;28;20225;-65
2022/02/11 05:18:32;;;;;;;5.80;5.20;;;;;20.00;101067.00;;;;2059093;28;20222;-65
2022/02/11 05:19:33;;;;;;;8.03;4.80;;;;;20.00;101058.00;;;;2058270;28;20211;-65
2022/02/11 05:20:33;;;;;;;6.83;4.50;;;;;20.00;101052.00;;;;2058882;28;20211;-66
2022/02/11 05:21:33;;;;;;;5.23;4.70;;;;;20.00;101062.00;;;;2058665;28;20219;-65
2022/02/11 05:22:34;;;;;;;6.33;4.80;;;;;19.90;101058.00;;;;2058398;28;20239;-65
2022/02/11 05:23:34;;;;;;;5.10;4.70;;;;;19.90;101053.00;;;;2062282;28;20239;-65
2022/02/11 05:24:34;;;;;;;6.07;5.20;;;;;19.90;101060.00;;;;2058733;28;20221;-65
2022/02/11 05:25:37;;;;;;;5.73;4.80;;;;;19.90;101061.00;;;;2058463;28;20238;-65
2022/02/11 05:26:37;;;;;;;5.20;4.18;;;;;19.90;101057.00;;;;2057625;28;20211;-65
2022/02/11 05:27:38;;;;;;;5.33;4.53;;;;;19.90;101051.00;;;;2055737;28;20215;-65
2022/02/11 05:28:38;;;;;;;6.17;4.80;;;;;19.90;101064.00;;;;2059236;28;20215;-66
2022/02/11 05:29:38;;;;;;;6.00;4.83;;;;;19.90;101063.00;;;;2058863;28;20234;-65
2022/02/11 05:30:39;;;;;;;6.40;4.87;;;;;19.90;101080.00;;;;2058448;28;20574;-65
2022/02/11 05:31:39;;;;;;;5.53;4.27;;;;;19.90;101070.00;;;;2058633;28;20633;-66
2022/02/11 05:32:40;;;;;;;4.73;4.23;;;;;19.90;101069.00;;;;2058538;28;20219;-65
2022/02/11 05:33:40;;;;;;;5.03;4.40;;;;;19.90;101081.00;;;;2058384;28;20222;-65
2022/02/11 05:34:40;;;;;;;5.83;4.40;;;;;19.90;101077.00;;;;2058351;28;20222;-65
2022/02/11 05:35:41;;;;;;;5.50;3.93;;;;;19.90;101080.00;;;;2058639;28;20211;-65
2022/02/11 05:36:41;;;;;;;4.93;4.10;;;;;19.90;101072.00;;;;2058331;28;20318;-65
2022/02/11 05:37:41;;;;;;;5.27;4.40;;;;;19.90;101086.00;;;;2058352;28;20272;-65
2022/02/11 05:38:42;;;;;;;5.97;4.77;;;;;19.90;101088.00;;;;2056275;28;20694;-65
2022/02/11 05:39:42;;;;;;;6.23;4.20;;;;;19.90;101088.00;;;;2058926;28;20257;-65
2022/02/11 05:40:44;;;;;;;5.33;4.50;;;;;19.90;101085.00;;;;2058758;28;20218;-65
2022/02/11 05:41:45;;;;;;;6.75;4.43;;;;;19.90;101090.00;;;;2058877;28;20749;-65
2022/02/11 05:42:45;;;;;;;5.83;4.30;;;;;19.80;101099.00;;;;2059298;28;20220;-65
2022/02/11 05:43:45;;;;;;;7.17;4.63;;;;;19.90;101090.00;;;;2059290;28;20264;-65
2022/02/11 05:44:46;;;;;;;6.13;4.23;;;;;19.90;101096.00;;;;2058994;28;20218;-65
2022/02/11 05:45:46;;;;;;;7.60;4.03;;;;;19.80;101102.00;;;;2058846;28;20229;-65
2022/02/11 05:46:46;;;;;;;7.90;4.23;;;;;19.90;101092.00;;;;2058962;28;21039;-65
2022/02/11 05:47:47;;;;;;;6.60;4.13;;;;;19.90;101103.00;;;;2058894;28;20219;-65
2022/02/11 05:48:47;;;;;;;5.70;4.23;;;;;19.90;101083.00;;;;2059153;28;20228;-65
2022/02/11 05:49:48;;;;;;;5.43;3.80;;;;;19.90;101093.00;;;;2059670;28;20713;-66
2022/02/11 05:50:48;;;;;;;6.87;4.67;;;;;19.90;101095.00;;;;2059304;28;20302;-65
2022/02/11 05:51:49;;;;;;;6.10;4.27;;;;;19.90;101102.00;;;;2059630;28;20466;-65
2022/02/11 05:52:49;;;;;;;5.20;4.03;;;;;19.80;101096.00;;;;2059305;28;20221;-65
2022/02/11 05:53:49;;;;;;;6.13;4.00;;;;;19.80;101091.00;;;;2057922;28;20203;-65
2022/02/11 05:54:50;;;;;;;6.57;4.30;;;;;19.80;101093.00;;;;2058845;28;20238;-65
2022/02/11 05:55:50;;;;;;;6.43;4.00;;;;;19.80;101094.00;;;;2058653;28;20699;-65
2022/02/11 05:56:51;;;;;;;6.20;4.03;;;;;19.90;101108.00;;;;2058815;28;20219;-65
2022/02/11 05:57:51;;;;;;;5.60;3.93;;;;;19.90;101105.00;;;;2059562;28;20699;-65
2022/02/11 05:58:51;;;;;;;5.90;4.20;;;;;19.90;101105.00;;;;2058761;28;20295;-65
2022/02/11 05:59:52;;;;;;;5.37;3.97;;;;;19.80;101094.00;;;;2058970;28;20221;-65
2022/02/11 06:00:53;;;;;;;6.27;4.10;;;;;19.80;101099.00;;;;2059305;28;20219;-65
2022/02/11 06:01:53;;;;;;;5.70;3.70;;;;;19.90;101110.00;;;;2058801;28;20214;-65
2022/02/11 06:02:53;;;;;;;5.77;4.10;;;;;19.90;101117.00;;;;2058448;28;20450;-65
2022/02/11 06:03:54;;;;;;;7.50;3.90;;;;;19.90;101123.00;;;;2058803;28;20218;-65
2022/02/11 06:04:54;;;;;;;5.47;3.37;;;;;19.90;101123.00;;;;2058843;28;20243;-65
2022/02/11 06:05:54;;;;;;;7.20;3.20;;;;;19.90;101113.00;;;;2059161;28;20218;-65
2022/02/11 06:06:57;;;;;;;3.73;3.13;;;;;19.90;101106.00;;;;2059623;28;20385;-65
2022/02/11 06:07:58;;;;;;;5.82;3.58;;;;;19.90;101120.00;;;;2059556;28;20266;-65
2022/02/11 06:08:58;;;;;;;6.10;3.87;;;;;19.90;101132.00;;;;2058756;28;20293;-65
2022/02/11 06:09:58;;;;;;;4.40;3.23;;;;;20.00;101121.00;;;;2058126;28;20219;-65
2022/02/11 06:10:59;;;;;;;7.60;4.10;;;;;20.00;101134.00;;;;2057867;28;20211;-65
2022/02/11 06:11:59;;;;;;;6.23;3.20;;;;;20.00;101127.00;;;;2041966;28;20267;-65
2022/02/11 06:13:00;;;;;;;5.20;3.33;;;;;20.00;101136.00;;;;2042301;28;20300;-65
2022/02/11 06:14:00;;;;;;;7.10;3.50;;;;;20.00;101161.00;;;;2057150;28;20219;-65
2022/02/11 06:15:01;;;;;;;5.77;3.23;;;;;20.00;101138.00;;;;2059362;28;20463;-65
2022/02/11 06:16:01;;;;;;;4.23;3.00;;;;;20.00;101151.00;;;;2059239;28;20699;-65
2022/02/11 06:17:01;;;;;;;4.83;3.17;;;;;20.00;101136.00;;;;2058214;28;20265;-65
2022/02/11 06:18:02;;;;;;;5.37;2.93;;;;;20.00;101130.00;;;;2059275;28;20298;-65
2022/02/11 06:19:02;;;;;;;6.40;3.57;;;;;20.00;101138.00;;;;2058773;28;20218;-65
2022/02/11 06:20:03;;;;;;;5.03;2.97;;;;;20.00;101146.00;;;;2058816;28;20235;-65
2022/02/11 06:21:03;;;;;;;5.17;2.97;;;;;20.00;101142.00;;;;2058429;28;20400;-66
2022/02/11 06:22:03;;;;;;;6.47;3.30;;;;;20.00;101140.00;;;;2058638;28;20250;-65
2022/02/11 06:23:04;;;;;;;4.13;2.80;;;;;20.10;101131.00;;;;2058611;28;20215;-65
2022/02/11 06:24:04;;;;;;;6.23;3.47;;;;;20.10;101130.00;;;;2056808;28;20218;-65
2022/02/11 06:25:05;;;;;;;6.70;3.10;;;;;20.10;101148.00;;;;2058078;28;20572;-65
2022/02/11 06:26:05;;;;;;;4.50;2.73;;;;;20.10;101149.00;;;;2062416;28;20777;-65
2022/02/11 06:27:06;;;;;;;4.40;2.60;;;;;20.10;101154.00;;;;2060398;28;20221;-65
2022/02/11 06:28:06;;;;;;;5.80;2.90;;;;;20.10;101156.00;;;;2060394;28;20199;-65
2022/02/11 06:29:06;;;;;;;7.53;2.80;;;;;20.10;101150.00;;;;2060220;28;20241;-65
2022/02/11 06:30:07;;;;;;;7.50;3.83;;;;;20.10;101166.00;;;;2060213;28;20227;-65
2022/02/11 06:31:07;;;;;;;6.73;3.27;;;;;20.10;101170.00;;;;2060313;28;20223;-65
2022/02/11 06:32:08;;;;;;;5.10;2.80;;;;;20.10;101165.00;;;;2061191;28;20462;-65
2022/02/11 06:33:08;;;;;;;4.80;2.80;;;;;20.10;101173.00;;;;2062465;28;20250;-65
2022/02/11 06:34:09;;;;;;;4.43;2.93;;;;;20.10;101170.00;;;;2060343;28;20250;-65
2022/02/11 06:35:11;;;;;;;6.43;3.10;;;;;20.10;101168.00;;;;2060631;28;20372;-65
2022/02/11 06:36:11;;;;;;;5.18;2.75;;;;;20.10;101164.00;;;;2061074;28;20718;-65
2022/02/11 06:37:11;;;;;;;6.10;3.13;;;;;20.10;101176.00;;;;2060964;28;20219;-65
2022/02/11 06:38:12;;;;;;;5.70;3.00;;;;;20.10;101173.00;;;;2060910;28;20211;-66
2022/02/11 06:39:12;;;;;;;5.73;2.90;;;;;20.10;101175.00;;;;2061355;28;20211;-65
2022/02/11 06:40:13;;;;;;;4.50;3.00;;;;;20.10;101182.00;;;;2060336;28;20694;-66
2022/02/11 06:41:14;;;;;;;5.22;2.50;;;;;20.10;101176.00;;;;2059362;28;20341;-66
2022/02/11 06:42:14;;;;;;;6.07;2.37;;;;;20.00;101179.00;;;;2059628;28;20719;-65
2022/02/11 06:43:15;;;;;;;7.30;2.63;;;;;20.00;101174.00;;;;2060557;28;20257;-66
2022/02/11 06:44:15;;;;;;;12.97;3.40;;;;;20.10;101186.00;;;;2060959;28;20219;-65
2022/02/11 06:45:15;;;;;;;5.50;2.60;;;;;20.10;101199.00;;;;2060916;28;20238;-65
2022/02/11 06:46:17;;;;;;;6.27;2.20;;;;;20.10;101198.00;;;;2060745;28;20222;-65
2022/02/11 06:47:17;;;;;;;6.97;2.40;;;;;20.20;101199.00;;;;2060872;28;20203;-67
2022/02/11 06:48:21;;;;;;;7.83;2.60;;;;;20.20;101196.00;;;;2059272;28;20602;-67
2022/02/11 06:49:21;;;;;;;8.93;2.90;;;;;20.30;101206.00;;;;2059539;28;20213;-66
2022/02/11 06:50:21;;;;;;;4.57;2.10;;;;;20.30;101203.00;;;;2059986;28;20211;-67
2022/02/11 06:51:22;;;;;;;7.23;2.37;;;;;20.30;101217.00;;;;2060396;28;20207;-68
2022/02/11 06:52:22;;;;;;;4.10;2.00;;;;;20.30;101221.00;;;;2060288;28;20246;-67
2022/02/11 06:53:22;;;;;;;6.03;2.33;;;;;20.40;101228.00;;;;2060299;28;20306;-67
2022/02/11 06:54:23;;;;;;;6.23;2.50;;;;;20.40;101209.00;;;;2061003;28;20211;-67
2022/02/11 06:55:23;;;;;;;5.70;2.30;;;;;20.20;101221.00;;;;2060787;28;20215;-68
2022/02/11 06:56:24;;;;;;;5.50;2.67;;;;;20.40;101230.00;;;;2063818;28;20402;-67
2022/02/11 06:57:24;;;;;;;5.37;2.00;;;;;20.40;101228.00;;;;2063886;28;20607;-66
2022/02/11 06:58:24;;;;;;;3.80;2.30;;;;;20.40;101234.00;;;;2059908;28;20712;-65
2022/02/11 06:59:25;;;;;;;5.00;2.43;;;;;20.40;101232.00;;;;2060157;28;20769;-65
2022/02/11 07:00:25;;;;;;;5.20;2.10;;;;;20.40;101234.00;;;;2060080;28;20222;-65
2022/02/11 07:01:25;;;;;;;6.53;2.43;;;;;20.40;101228.00;;;;2063002;28;20678;-65
2022/02/11 07:02:27;;;;;;;4.50;1.90;;;;;20.40;101243.00;;;;2059531;28;20214;-65
2022/02/11 07:03:27;;;;;;;6.28;2.83;;;;;20.30;101241.00;;;;2059409;28;20724;-66
2022/02/11 07:04:28;;;;;;;5.53;2.63;;;;;20.30;101239.00;;;;2051682;28;20224;-65
2022/02/11 07:05:29;;;;;;;5.40;2.40;;;;;20.30;101247.00;;;;2051210;28;20231;-65
2022/02/11 07:06:29;;;;;;;5.33;2.30;;;;;20.30;101255.00;;;;2055626;28;20220;-66
2022/02/11 07:07:29;;;;;;;5.00;2.33;;;;;20.30;101252.00;;;;2063951;28;20317;-66
2022/02/11 07:08:30;;;;;;;4.70;2.40;;;;;20.30;101252.00;;;;2060603;28;20219;-66
2022/02/11 07:09:30;;;;;;;3.93;2.30;;;;;20.30;101257.00;;;;2060862;28;20244;-65
2022/02/11 07:10:30;;;;;;;5.67;2.20;;;;;20.30;101263.00;;;;2060065;28;20710;-80
2022/02/11 07:11:31;;;;;;;4.80;2.40;;;;;20.30;101251.00;;;;2060247;28;20304;-65
2022/02/11 07:12:31;;;;;;;6.00;2.70;;;;;20.30;101261.00;;;;2067772;28;20756;-65
2022/02/11 07:13:31;;;;;;;4.70;2.27;;;;;20.30;101263.00;;;;2059991;28;20612;-69
2022/02/11 07:14:32;;;;;;;4.47;2.43;;;;;20.30;101259.00;;;;2060043;28;20261;-64
2022/02/11 07:15:37;;;;;;;4.97;2.30;;;;;20.30;101258.00;;;;2059892;28;20326;-64
2022/02/11 07:16:37;;;;;;;4.40;2.20;;;;;20.30;101265.00;;;;2060347;28;20239;-63
2022/02/11 07:17:38;;;;;;;4.70;2.13;;;;;20.30;101259.00;;;;2060953;28;20223;-63
2022/02/11 07:18:38;;;;;;;4.60;1.87;;;;;20.40;101269.00;;;;2059224;28;20220;-64
2022/02/11 07:19:39;;;;;;;4.23;2.43;;;;;20.40;101264.00;;;;2056974;28;20301;-64
2022/02/11 07:20:39;;;;;;;6.97;2.33;;;;;20.40;101265.00;;;;2059038;28;20211;-63
2022/02/11 07:21:41;;;;;;;4.40;2.20;;;;;20.40;101273.00;;;;2058452;28;20210;-64
2022/02/11 07:22:41;;;;;;;6.75;2.45;;;;;20.30;101272.00;;;;2059216;28;20218;-64
2022/02/11 07:23:41;;;;;;;5.67;2.57;;;;;20.40;101277.00;;;;2058395;28;20208;-64
2022/02/11 07:24:42;;;;;;;6.10;3.83;;;;;20.40;101285.00;;;;2059294;28;20314;-64
2022/02/11 07:25:42;;;;;;;7.07;3.93;;;;;20.40;101296.00;;;;2060175;28;20231;-63
2022/02/11 07:26:42;;;;;;;6.97;4.63;;;;;20.40;101293.00;;;;2051381;28;20290;-64
2022/02/11 07:27:43;;;;;;;9.23;6.97;;;;;20.40;101284.00;;;;2051506;28;20257;-64
2022/02/11 07:28:43;;;;;;;14.20;9.30;;;;;20.40;101287.00;;;;2059331;28;20216;-63
2022/02/11 07:29:44;;;;;;;9.43;5.93;;;;;20.40;101290.00;;;;2061860;28;20249;-64
2022/02/11 07:30:47;;;;;;;24.00;16.67;;;;;20.40;101297.00;;;;2058968;28;20218;-64
2022/02/11 07:31:47;;;;;;;14.32;9.20;;;;;20.40;101306.00;;;;2058817;28;20215;-63
2022/02/11 07:32:48;;;;;;;30.93;20.77;;;;;20.40;101305.00;;;;2062943;28;20226;-63
2022/02/11 07:33:48;;;;;;;55.67;36.20;;;;;20.40;101298.00;;;;2059296;28;20218;-63
2022/02/11 07:34:49;;;;;;;37.17;22.80;;;;;20.40;101310.00;;;;2059199;28;20229;-63
2022/02/11 07:35:49;;;;;;;51.90;34.77;;;;;20.40;101307.00;;;;2059319;28;20211;-63
2022/02/11 07:36:49;;;;;;;51.47;35.10;;;;;20.40;101319.00;;;;2059390;28;20230;-64
2022/02/11 07:37:50;;;;;;;81.23;49.37;;;;;20.40;101324.00;;;;2059357;28;20208;-63
2022/02/11 07:38:53;;;;;;;48.70;33.00;;;;;20.40;101313.00;;;;2059329;28;20226;-64
2022/02/11 07:39:53;;;;;;;50.40;34.92;;;;;20.40;101319.00;;;;2060614;28;20619;-64
2022/02/11 07:40:54;;;;;;;75.80;50.13;;;;;20.50;101323.00;;;;2059488;28;20215;-64
2022/02/11 07:41:54;;;;;;;79.67;50.87;;;;;20.50;101333.00;;;;2060388;28;20302;-64
2022/02/11 07:42:54;;;;;;;67.53;44.93;;;;;20.50;101329.00;;;;2060180;28;20234;-64
2022/02/11 07:43:55;;;;;;;67.43;44.50;;;;;20.50;101335.00;;;;2060641;28;20223;-63
2022/02/11 07:44:57;;;;;;;65.20;42.93;;;;;20.50;101346.00;;;;2060312;28;20285;-63
2022/02/11 07:45:58;;;;;;;64.82;43.10;;;;;20.50;101339.00;;;;2059500;28;20234;-63
2022/02/11 07:46:58;;;;;;;62.83;43.20;;;;;20.50;101340.00;;;;2059577;28;20203;-64
2022/02/11 07:47:58;;;;;;;62.37;40.40;;;;;20.50;101362.00;;;;2059767;28;20259;-63
2022/02/11 07:48:59;;;;;;;72.63;49.27;;;;;20.50;101351.00;;;;2059883;28;20242;-63
2022/02/11 07:50:00;;;;;;;75.32;49.38;;;;;20.50;101352.00;;;;2060429;28;20216;-63
2022/02/11 07:51:01;;;;;;;87.53;58.90;;;;;20.50;101359.00;;;;2053619;28;20227;-64
2022/02/11 07:52:01;;;;;;;74.43;50.70;;;;;20.50;101356.00;;;;2054966;28;20238;-64
2022/02/11 07:53:02;;;;;;;87.07;55.60;;;;;20.50;101358.00;;;;2059681;28;20215;-63
2022/02/11 07:54:02;;;;;;;85.23;58.03;;;;;20.50;101350.00;;;;2057993;28;20509;-64
2022/02/11 07:55:03;;;;;;;68.23;47.93;;;;;20.50;101360.00;;;;2058883;28;20242;-64
2022/02/11 07:56:03;;;;;;;87.70;55.00;;;;;20.50;101371.00;;;;2059593;28;20246;-63
2022/02/11 07:57:04;;;;;;;105.37;66.87;;;;;20.50;101377.00;;;;2059648;28;20290;-64
2022/02/11 07:58:04;;;;;;;114.93;72.97;;;;;20.50;101379.00;;;;2060030;28;20250;-64
2022/02/11 07:59:05;;;;;;;104.03;67.77;;;;;20.50;101376.00;;;;2060068;28;20718;-63
2022/02/11 08:00:06;;;;;;;84.90;56.43;;;;;20.50;101385.00;;;;2061334;28;20219;-63
2022/02/11 08:01:06;;;;;;;118.65;77.07;;;;;20.50;101382.00;;;;2058769;28;20282;-64
2022/02/11 08:02:07;;;;;;;108.63;69.20;;;;;20.50;101395.00;;;;2067200;28;20251;-63
2022/02/11 08:03:07;;;;;;;107.87;71.70;;;;;20.50;101379.00;;;;2067110;28;20687;-64
2022/02/11 08:04:07;;;;;;;106.63;68.53;;;;;20.50;101389.00;;;;2058615;28;20341;-64
2022/02/11 08:05:08;;;;;;;95.63;66.50;;;;;20.50;101388.00;;;;2060161;28;20218;-64
2022/02/11 08:06:10;;;;;;;92.43;63.70;;;;;20.50;101388.00;;;;2059731;28;20211;-64
2022/02/11 08:07:11;;;;;;;110.28;72.18;;;;;20.50;101395.00;;;;2059433;28;20687;-63
2022/02/11 08:08:11;;;;;;;120.53;77.87;;;;;20.60;101391.00;;;;2059467;28;20232;-63
2022/02/11 08:09:11;;;;;;;111.17;73.73;;;;;20.60;101406.00;;;;2059545;28;20246;-64
2022/02/11 08:10:12;;;;;;;106.37;69.73;;;;;20.60;101392.00;;;;2058688;28;20644;-64
2022/02/11 08:11:12;;;;;;;104.40;66.03;;;;;20.60;101408.00;;;;2058531;28;20218;-64
2022/02/11 08:12:14;;;;;;;100.77;67.27;;;;;20.60;101394.00;;;;2059510;28;20640;-64
2022/02/11 08:13:14;;;;;;;99.32;65.13;;;;;20.60;101391.00;;;;2059398;28;20215;-63
2022/02/11 08:14:14;;;;;;;101.17;63.50;;;;;20.60;101397.00;;;;2060042;28;20303;-64
2022/02/11 08:15:15;;;;;;;90.23;61.57;;;;;20.60;101404.00;;;;2060320;28;20219;-65
2022/02/11 08:16:15;;;;;;;96.97;62.17;;;;;20.60;101409.00;;;;2060216;28;20231;-66
2022/02/11 08:17:16;;;;;;;83.37;59.90;;;;;20.60;101417.00;;;;2060238;28;20219;-65
2022/02/11 08:18:16;;;;;;;94.97;61.73;;;;;20.60;101417.00;;;;2059416;28;20592;-65
2022/02/11 08:19:19;;;;;;;83.37;57.27;;;;;20.70;101418.00;;;;2059357;28;20223;-64
2022/02/11 08:20:20;;;;;;;84.72;57.70;;;;;20.70;101412.00;;;;2058980;28;20679;-66
2022/02/11 08:21:23;;;;;;;81.73;56.90;;;;;20.70;101409.00;;;;2058071;28;20215;-65
2022/02/11 08:22:23;;;;;;;82.28;54.72;;;;;20.70;101418.00;;;;2059516;28;20219;-65
2022/02/11 08:23:25;;;;;;;80.50;56.17;;;;;20.70;101417.00;;;;2059149;28;20218;-66
2022/02/11 08:24:25;;;;;;;75.95;54.50;;;;;20.70;101429.00;;;;2066670;28;20210;-65
2022/02/11 08:25:25;;;;;;;81.67;54.37;;;;;20.70;101420.00;;;;2066703;28;20218;-65
2022/02/11 08:26:29;;;;;;;76.10;54.70;;;;;20.70;101428.00;;;;2060071;28;20203;-65
2022/02/11 08:27:29;;;;;;;77.68;54.25;;;;;20.70;101428.00;;;;2059394;28;20226;-64
2022/02/11 08:28:31;;;;;;;125.37;81.50;;;;;20.70;101428.00;;;;2059649;28;20243;-63
2022/02/11 08:29:32;;;;;;;109.45;71.90;;;;;20.70;101419.00;;;;2059639;28;20226;-64
2022/02/11 08:30:32;;;;;;;110.07;77.25;;;;;20.70;101428.00;;;;2059356;28;20211;-64
2022/02/11 08:31:33;;;;;;;110.20;71.20;;;;;20.70;101431.00;;;;2058042;28;20254;-64
2022/02/11 08:32:33;;;;;;;120.40;87.23;;;;;20.70;101433.00;;;;2058736;28;20716;-64
2022/02/11 08:33:33;;;;;;;108.97;78.03;;;;;20.70;101439.00;;;;2058321;28;20218;-64
2022/02/11 08:34:34;;;;;;;163.53;112.03;;;;;20.70;101443.00;;;;2049125;28;20235;-64
2022/02/11 08:35:34;;;;;;;197.73;134.03;;;;;20.70;101444.00;;;;2058500;28;20333;-64
2022/02/11 08:36:34;;;;;;;158.40;109.53;;;;;20.70;101451.00;;;;2058846;28;20215;-64
2022/02/11 08:37:35;;;;;;;185.57;129.40;;;;;20.70;101452.00;;;;2058678;28;20238;-64
2022/02/11 08:38:35;;;;;;;172.60;125.53;;;;;20.70;101452.00;;;;2059363;28;20246;-64
2022/02/11 08:39:38;;;;;;;196.13;134.47;;;;;20.70;101460.00;;;;2061302;28;20207;-64
2022/02/11 08:40:38;;;;;;;208.07;142.35;;;;;20.70;101452.00;;;;2058507;28;20226;-64